Airfield :
LOGIN :

Register | Disclaimer

   EN    FR    IT 

 










Legend :    VFR   Marginal VFR   IFR   Intensive IFR   Very Intensive IFR
Visi :
Ceiling :
>= 8 km
>= 3000ft
5 to 8 km
1000 to 3000 ft
1500m to 5 km
500 to 1000 ft
800 to 1500m
200 to 500 ft
< 800m
< 200 ft
Symbols :   Thunderstorms  Fog  Heavy snow  Heavy precipitations  Wind > 20 kt
SIGMETs :     Misc.  Thunderstorms  Icing  Turbulence  Mountain Waves  Volcanic Ashes






- Airport Elevation : 357 ft
- IATA code : TUF


LFOT - Tours

CURRENT METAR :
  • 080200Z AUTO 22010KT 190V250 9999 BKN007 OVC019 11/10 Q1016 TEMPO 3500 -DZ OVC002

EXPIRED METARs :
  • 080130Z AUTO 23009KT 200V260 9999 BKN005 OVC009 10/10 Q1017
  • 080100Z AUTO 22011KT 9999 BKN005 OVC010 10/10 Q1017 TEMPO 3500 -DZ
  • 080030Z AUTO 21009KT 3400 DZ BR OVC003 10/10 Q1017 TEMPO NSW
  • 080000Z AUTO 21009KT 9999 OVC005 10/10 Q1018 TEMPO 3500 -DZ
  • 072330Z AUTO 21008KT 5000 -DZ BR OVC005 10/10 Q1018 NOSIG
  • 072300Z AUTO 21008KT 9999 BKN007 OVC033 10/10 Q1018 TEMPO 3500 -DZ OVC002

TAF TAF LFOT
Valid from the 08 at 00:00 until the 09 at 00:00 UTC


072300Z 0800/0824 24006KT 9999 OVC008
TEMPO 0800/0806 3500 -DZ OVC002
BECMG 0806/0808 22015G25KT -RA BKN012
TEMPO 0808/0810 4000 RA OVC006
PROB30
TEMPO 0808/0810 20020G30KT
TEMPO 0810/0813 2500 -RADZ OVC003
BECMG 0813/0815 NSW SCT040
TEMPO 0819/0824 4000 -SHRA SCT030TCU



MET'MAP, your aeronautical weather chart ! - Copyright ORBIFLY December 2007 - Disclaimer

ORBIFLY MET'MAP TEAM :

Programming & Development : Alexandra Zaïnal
Concept & original design : Baudouin d'Aumeries
Assistance for programming : Marc-Olivier Méhu
Technical & hardware support : Manuel Goepfert

Contact : metmap@orbifly.com




SOURCES & CREDITS :

   NOAA